Time;durP1;ratioP1;P1;durP2;ratioP2;P2;SDS_P1;SDS_P2;PMS_P1;PMS_P2;Temp;Humidity;BMP_temperature;BMP_pressure;BME280_temperature;BME280_humidity;BME280_pressure;Samples;Min_cycle;Max_cycle;Signal;HPM_P1;HPM_P2
2023/04/02 00:00:30;;;;;;;1.10;1.00;;;;;;;;;;5113368;27;83908;-62
2023/04/02 00:03:00;;;;;;;3.17;1.13;;;;;;;;;;5123121;27;82920;-62
2023/04/02 00:05:33;;;;;;;2.23;1.30;;;;;;;;;;5107257;27;83729;-61
2023/04/02 00:08:02;;;;;;;1.23;1.00;;;;;;;;;;5116311;27;84167;-61
2023/04/02 00:10:31;;;;;;;1.97;1.03;;;;;;;;;;5112611;27;83773;-61
2023/04/02 00:13:00;;;;;;;2.97;1.67;;;;;;;;;;5125555;27;82101;-61
2023/04/02 00:15:29;;;;;;;1.73;1.10;;;;;;;;;;5113536;27;82717;-62
2023/04/02 00:17:57;;;;;;;2.67;1.70;;;;;;;;;;5125289;27;83848;-61
2023/04/02 00:20:25;;;;;;;1.47;1.10;;;;;;;;;;5111766;27;83914;-61
2023/04/02 00:22:56;;;;;;;2.53;1.47;;;;;;;;;;5126467;27;82779;-61
2023/04/02 00:25:24;;;;;;;1.33;1.13;;;;;;;;;;5127995;27;84241;-62
2023/04/02 00:27:52;;;;;;;1.53;1.43;;;;;;;;;;5125039;27;84189;-61
2023/04/02 00:30:21;;;;;;;1.60;1.33;;;;;;;;;;5103462;27;84838;-62
2023/04/02 00:32:49;;;;;;;2.00;1.17;;;;;;;;;;5107716;27;81894;-62
2023/04/02 00:35:19;;;;;;;1.13;1.03;;;;;;;;;;5116190;27;84005;-62
2023/04/02 00:37:47;;;;;;;2.23;1.63;;;;;;;;;;5109380;27;83830;-61
2023/04/02 00:40:19;;;;;;;1.30;1.20;;;;;;;;;;5126970;27;82773;-61
2023/04/02 00:42:49;;;;;;;3.40;1.47;;;;;;;;;;5128495;27;81789;-63
2023/04/02 00:45:18;;;;;;;1.37;1.27;;;;;;;;;;5113503;27;82843;-62
2023/04/02 00:47:46;;;;;;;2.63;1.10;;;;;;;;;;5127603;27;83916;-62
2023/04/02 00:50:19;;;;;;;1.33;1.20;;;;;;;;;;5126186;27;83872;-62
2023/04/02 00:52:48;;;;;;;2.70;1.50;;;;;;;;;;5127648;27;82905;-62
2023/04/02 00:55:20;;;;;;;4.20;1.30;;;;;;;;;;5125675;27;84138;-63
2023/04/02 00:57:48;;;;;;;3.03;1.03;;;;;;;;;;5128164;27;83783;-62
2023/04/02 01:00:20;;;;;;;2.30;1.47;;;;;;;;;;5124828;27;83861;-63
2023/04/02 01:03:03;;;;;;;1.20;1.10;;;;;;;;;;5128076;27;82026;-62
2023/04/02 01:05:33;;;;;;;1.00;0.90;;;;;;;;;;5110353;27;83797;-62
2023/04/02 01:08:04;;;;;;;1.43;1.20;;;;;;;;;;5107622;27;84092;-62
2023/04/02 01:10:41;;;;;;;2.67;1.53;;;;;;;;;;5111037;27;83812;-62
2023/04/02 01:13:12;;;;;;;1.27;0.93;;;;;;;;;;5104165;27;83125;-62
2023/04/02 01:15:41;;;;;;;0.53;0.53;;;;;;;;;;5110648;27;83698;-62
2023/04/02 01:18:17;;;;;;;1.07;0.93;;;;;;;;;;5109029;27;85157;-62
2023/04/02 01:21:06;;;;;;;0.97;0.97;;;;;;;;;;5109780;27;84913;-62
2023/04/02 01:23:36;;;;;;;1.43;1.23;;;;;;;;;;5108379;27;81972;-64
2023/04/02 01:26:07;;;;;;;1.37;0.90;;;;;;;;;;5118492;27;84245;-62
2023/04/02 01:28:45;;;;;;;2.50;1.17;;;;;;;;;;5105469;27;84041;-62
2023/04/02 01:31:13;;;;;;;0.60;0.60;;;;;;;;;;5125274;27;82794;-62
2023/04/02 01:33:42;;;;;;;1.37;1.17;;;;;;;;;;5119582;27;82856;-61
2023/04/02 01:36:11;;;;;;;0.83;0.83;;;;;;;;;;5124734;27;82469;-62
2023/04/02 01:38:40;;;;;;;1.30;0.90;;;;;;;;;;5109117;27;84097;-62
2023/04/02 01:41:09;;;;;;;0.70;0.70;;;;;;;;;;5123711;27;82894;-62
2023/04/02 01:43:39;;;;;;;1.33;1.23;;;;;;;;;;5113654;27;83378;-62
2023/04/02 01:46:24;;;;;;;1.23;1.00;;;;;;;;;;5103819;27;83627;-62
2023/04/02 01:48:53;;;;;;;1.10;0.80;;;;;;;;;;5109740;27;82819;-62
2023/04/02 01:51:26;;;;;;;2.03;1.00;;;;;;;;;;5117616;27;83555;-62
2023/04/02 01:53:55;;;;;;;1.40;1.13;;;;;;;;;;5123233;27;81835;-62
2023/04/02 01:56:23;;;;;;;1.07;1.03;;;;;;;;;;5124363;27;83695;-63
2023/04/02 01:58:51;;;;;;;1.00;0.90;;;;;;;;;;5106234;27;86676;-62
2023/04/02 02:01:21;;;;;;;1.30;1.20;;;;;;;;;;5114487;27;83727;-62
2023/04/02 02:03:50;;;;;;;1.67;1.30;;;;;;;;;;5106447;27;81820;-62
2023/04/02 02:06:18;;;;;;;1.93;1.57;;;;;;;;;;5120562;27;83778;-62
2023/04/02 02:08:47;;;;;;;3.93;1.20;;;;;;;;;;5121227;27;83795;-62
2023/04/02 02:11:16;;;;;;;1.47;1.20;;;;;;;;;;5105915;27;84936;-62
2023/04/02 02:13:48;;;;;;;1.40;1.10;;;;;;;;;;5106124;27;82310;-62
2023/04/02 02:16:17;;;;;;;1.50;1.13;;;;;;;;;;5106222;27;83989;-62
2023/04/02 02:18:47;;;;;;;0.87;0.80;;;;;;;;;;5118445;27;82959;-62
2023/04/02 02:21:16;;;;;;;2.67;0.97;;;;;;;;;;5119052;27;83590;-62
2023/04/02 02:23:45;;;;;;;1.30;1.20;;;;;;;;;;5107474;27;81984;-62
2023/04/02 02:26:13;;;;;;;1.13;0.67;;;;;;;;;;5113313;27;83516;-63
2023/04/02 02:28:42;;;;;;;1.27;1.00;;;;;;;;;;5104942;27;83916;-62
2023/04/02 02:31:12;;;;;;;1.67;1.17;;;;;;;;;;5106031;27;83899;-62
2023/04/02 02:33:42;;;;;;;1.93;1.27;;;;;;;;;;5104831;27;82878;-62
2023/04/02 02:36:14;;;;;;;1.17;0.80;;;;;;;;;;5105563;27;83736;-62
2023/04/02 02:38:44;;;;;;;0.63;0.63;;;;;;;;;;5108241;27;83996;-62
2023/04/02 02:41:14;;;;;;;1.60;1.00;;;;;;;;;;5110777;27;83716;-62
2023/04/02 02:43:42;;;;;;;1.17;1.07;;;;;;;;;;5105685;27;81990;-62
2023/04/02 02:46:11;;;;;;;1.30;1.13;;;;;;;;;;5105776;27;84045;-62
2023/04/02 02:48:39;;;;;;;0.70;0.70;;;;;;;;;;5106495;27;83994;-62
2023/04/02 02:51:09;;;;;;;1.20;0.80;;;;;;;;;;5123222;27;83533;-62
2023/04/02 02:53:45;;;;;;;0.97;0.93;;;;;;;;;;5109770;27;81885;-62
2023/04/02 02:56:14;;;;;;;0.80;0.80;;;;;;;;;;5109499;27;83818;-62
2023/04/02 02:58:42;;;;;;;1.47;1.07;;;;;;;;;;5110334;27;85039;-62
2023/04/02 03:01:10;;;;;;;1.17;1.00;;;;;;;;;;5094973;27;83450;-62
2023/04/02 03:03:39;;;;;;;0.77;0.73;;;;;;;;;;5109396;27;82035;-62
2023/04/02 03:06:08;;;;;;;2.63;0.90;;;;;;;;;;5109409;27;84273;-62
2023/04/02 03:08:39;;;;;;;1.57;1.00;;;;;;;;;;5110208;27;83798;-62
2023/04/02 03:11:09;;;;;;;2.10;0.87;;;;;;;;;;5110818;27;82810;-62
2023/04/02 03:13:38;;;;;;;1.43;1.00;;;;;;;;;;5108420;27;81954;-62
2023/04/02 03:16:09;;;;;;;3.13;1.30;;;;;;;;;;5109163;27;83723;-62
2023/04/02 03:18:39;;;;;;;2.43;1.10;;;;;;;;;;5111538;27;84024;-62
2023/04/02 03:21:10;;;;;;;0.60;0.60;;;;;;;;;;5111084;27;83857;-62
2023/04/02 03:23:39;;;;;;;1.13;0.73;;;;;;;;;;5108370;27;82780;-62
2023/04/02 03:26:11;;;;;;;1.10;0.83;;;;;;;;;;5111352;27;83928;-62
2023/04/02 03:28:40;;;;;;;0.57;0.53;;;;;;;;;;5113190;27;84117;-62
2023/04/02 03:31:09;;;;;;;1.20;1.10;;;;;;;;;;5111562;27;83734;-62
2023/04/02 03:33:38;;;;;;;1.33;1.10;;;;;;;;;;5108375;27;82019;-62
2023/04/02 03:36:11;;;;;;;1.13;1.00;;;;;;;;;;5125214;27;83536;-62
2023/04/02 03:38:42;;;;;;;0.90;0.90;;;;;;;;;;5124257;27;83922;-62
2023/04/02 03:41:13;;;;;;;0.77;0.77;;;;;;;;;;5125505;27;83802;-62
2023/04/02 03:43:43;;;;;;;2.47;1.20;;;;;;;;;;5129444;27;81938;-62
2023/04/02 03:46:18;;;;;;;0.83;0.73;;;;;;;;;;5113387;27;82761;-62
2023/04/02 03:48:47;;;;;;;1.17;1.07;;;;;;;;;;5116262;27;84879;-62
2023/04/02 03:51:17;;;;;;;1.43;0.80;;;;;;;;;;5113366;27;84689;-62
2023/04/02 03:53:45;;;;;;;0.77;0.77;;;;;;;;;;5111578;27;81887;-62
2023/04/02 03:56:22;;;;;;;0.60;0.60;;;;;;;;;;5113671;27;83786;-62
2023/04/02 03:58:52;;;;;;;0.80;0.60;;;;;;;;;;5117115;27;84024;-62
2023/04/02 04:01:21;;;;;;;0.77;0.70;;;;;;;;;;5112205;27;83788;-62
2023/04/02 04:03:50;;;;;;;2.10;1.30;;;;;;;;;;5107991;27;82046;-62
2023/04/02 04:06:20;;;;;;;1.53;1.00;;;;;;;;;;5123899;27;83874;-61
2023/04/02 04:08:50;;;;;;;0.87;0.70;;;;;;;;;;5119458;27;84830;-62
2023/04/02 04:11:23;;;;;;;1.80;0.83;;;;;;;;;;5122734;27;83964;-62
2023/04/02 04:13:53;;;;;;;0.80;0.70;;;;;;;;;;5128260;27;82847;-64
2023/04/02 04:16:22;;;;;;;0.63;0.63;;;;;;;;;;5113707;27;83560;-64
2023/04/02 04:18:55;;;;;;;0.67;0.67;;;;;;;;;;5112772;27;84010;-64
2023/04/02 04:21:29;;;;;;;1.03;0.57;;;;;;;;;;5114430;27;83846;-64
2023/04/02 04:23:58;;;;;;;0.60;0.60;;;;;;;;;;5115981;27;83669;-64
2023/04/02 04:26:33;;;;;;;0.60;0.60;;;;;;;;;;5114826;27;84223;-64
2023/04/02 04:29:04;;;;;;;1.80;1.00;;;;;;;;;;5111651;27;89034;-64
2023/04/02 04:31:37;;;;;;;0.87;0.87;;;;;;;;;;5111163;27;88876;-64
2023/04/02 04:34:06;;;;;;;0.60;0.60;;;;;;;;;;5104776;27;86965;-63
2023/04/02 04:36:40;;;;;;;0.77;0.67;;;;;;;;;;5118786;27;87035;-63
2023/04/02 04:39:09;;;;;;;0.37;0.37;;;;;;;;;;5117212;27;89970;-63
2023/04/02 04:41:38;;;;;;;0.67;0.67;;;;;;;;;;5118263;27;88670;-63
2023/04/02 04:44:07;;;;;;;1.03;0.60;;;;;;;;;;5126108;27;87021;-63
2023/04/02 04:46:36;;;;;;;1.00;0.90;;;;;;;;;;5106825;27;87064;-63
2023/04/02 04:49:05;;;;;;;0.83;0.83;;;;;;;;;;5102288;27;89040;-63
2023/04/02 04:51:34;;;;;;;0.93;0.40;;;;;;;;;;5116435;27;89185;-63
2023/04/02 04:54:03;;;;;;;0.70;0.50;;;;;;;;;;5104413;27;87122;-63
2023/04/02 04:56:31;;;;;;;0.93;0.50;;;;;;;;;;5085191;27;87746;-63
2023/04/02 04:59:02;;;;;;;0.60;0.60;;;;;;;;;;5082744;27;89312;-63
2023/04/02 05:01:31;;;;;;;0.90;0.50;;;;;;;;;;5084655;27;88881;-64
2023/04/02 05:04:00;;;;;;;0.53;0.53;;;;;;;;;;5084507;27;88387;-64
2023/04/02 05:06:33;;;;;;;0.73;0.50;;;;;;;;;;5083009;27;87589;-63
2023/04/02 05:09:03;;;;;;;0.73;0.73;;;;;;;;;;5094147;27;89113;-63
2023/04/02 05:11:32;;;;;;;0.80;0.57;;;;;;;;;;5108363;27;89106;-63
2023/04/02 05:14:02;;;;;;;0.93;0.93;;;;;;;;;;5104925;27;87056;-63
2023/04/02 05:16:32;;;;;;;0.57;0.57;;;;;;;;;;5098102;27;87013;-64
2023/04/02 05:19:02;;;;;;;0.83;0.83;;;;;;;;;;5109200;27;88243;-63
2023/04/02 05:21:33;;;;;;;0.70;0.57;;;;;;;;;;5110729;27;88409;-63
2023/04/02 05:24:17;;;;;;;1.40;1.07;;;;;;;;;;5091381;27;87079;-64
2023/04/02 05:26:45;;;;;;;0.87;0.60;;;;;;;;;;5092060;27;86997;-66
2023/04/02 05:29:16;;;;;;;0.43;0.43;;;;;;;;;;5109761;27;88102;-63
2023/04/02 05:31:45;;;;;;;1.03;0.80;;;;;;;;;;5115432;27;89564;-63
2023/04/02 05:34:13;;;;;;;1.03;0.53;;;;;;;;;;5104249;27;87035;-63
2023/04/02 05:36:41;;;;;;;0.80;0.80;;;;;;;;;;5105342;27;86909;-63
2023/04/02 05:39:10;;;;;;;0.70;0.70;;;;;;;;;;5101250;27;89136;-63
2023/04/02 05:41:39;;;;;;;0.33;0.33;;;;;;;;;;5088184;27;88869;-63
2023/04/02 05:44:08;;;;;;;0.70;0.53;;;;;;;;;;5103551;27;86967;-63
2023/04/02 05:46:41;;;;;;;0.43;0.40;;;;;;;;;;5105656;27;87285;-63
2023/04/02 05:49:10;;;;;;;0.50;0.50;;;;;;;;;;5104392;27;87448;-63
2023/04/02 05:51:39;;;;;;;0.60;0.60;;;;;;;;;;5108907;27;87341;-64
2023/04/02 05:54:07;;;;;;;1.30;0.70;;;;;;;;;;5107059;27;87779;-63
2023/04/02 05:56:36;;;;;;;0.80;0.80;;;;;;;;;;5104816;27;87588;-63
2023/04/02 05:59:07;;;;;;;0.93;0.93;;;;;;;;;;5108871;27;89255;-63
2023/04/02 06:01:40;;;;;;;0.97;0.90;;;;;;;;;;5084956;27;88874;-63
2023/04/02 06:04:12;;;;;;;0.57;0.57;;;;;;;;;;5110821;27;87084;-63
2023/04/02 06:06:48;;;;;;;0.60;0.60;;;;;;;;;;5088461;27;87038;-63
2023/04/02 06:09:18;;;;;;;2.23;0.80;;;;;;;;;;5099518;27;89215;-63
2023/04/02 06:11:46;;;;;;;0.90;0.90;;;;;;;;;;5107678;27;88793;-63
2023/04/02 06:14:15;;;;;;;0.87;0.77;;;;;;;;;;5084951;27;87215;-63
2023/04/02 06:16:45;;;;;;;1.20;0.60;;;;;;;;;;5088557;27;87111;-64
2023/04/02 06:19:16;;;;;;;0.40;0.40;;;;;;;;;;5090041;27;88953;-64
2023/04/02 06:21:45;;;;;;;0.67;0.67;;;;;;;;;;5102786;27;89885;-71
2023/04/02 06:24:14;;;;;;;0.63;0.63;;;;;;;;;;5116781;27;86828;-62
2023/04/02 06:26:43;;;;;;;0.47;0.47;;;;;;;;;;5095658;27;86906;-64
2023/04/02 06:29:11;;;;;;;0.73;0.70;;;;;;;;;;5087541;27;89212;-62
2023/04/02 06:31:41;;;;;;;0.93;0.87;;;;;;;;;;5102509;27;89048;-62
2023/04/02 06:34:14;;;;;;;0.60;0.60;;;;;;;;;;5099792;27;87080;-65
2023/04/02 06:36:43;;;;;;;0.60;0.60;;;;;;;;;;5100074;27;86315;-63
2023/04/02 06:39:12;;;;;;;1.00;0.60;;;;;;;;;;5107456;27;89280;-63
2023/04/02 06:41:40;;;;;;;0.77;0.60;;;;;;;;;;5097226;27;88665;-63
2023/04/02 06:44:10;;;;;;;0.40;0.40;;;;;;;;;;5098277;27;88032;-64
2023/04/02 06:46:39;;;;;;;0.83;0.60;;;;;;;;;;5081766;27;87070;-62
2023/04/02 06:49:11;;;;;;;3.27;0.80;;;;;;;;;;5087848;27;89190;-64
2023/04/02 06:51:40;;;;;;;1.30;1.20;;;;;;;;;;5084297;27;88794;-63
2023/04/02 06:54:09;;;;;;;0.87;0.87;;;;;;;;;;5099910;27;87153;-64
2023/04/02 06:56:39;;;;;;;1.63;1.00;;;;;;;;;;5089159;27;87091;-65
2023/04/02 06:59:08;;;;;;;0.60;0.60;;;;;;;;;;5091867;27;89340;-65
2023/04/02 07:01:36;;;;;;;1.30;0.83;;;;;;;;;;5094520;27;88904;-62
2023/04/02 07:04:05;;;;;;;0.80;0.57;;;;;;;;;;5088944;27;88531;-65
2023/04/02 07:06:33;;;;;;;0.50;0.50;;;;;;;;;;5103122;27;86926;-63
2023/04/02 07:09:03;;;;;;;0.63;0.63;;;;;;;;;;5088127;27;90028;-62
2023/04/02 07:11:31;;;;;;;0.60;0.60;;;;;;;;;;5092999;27;89484;-63
2023/04/02 07:13:59;;;;;;;0.50;0.50;;;;;;;;;;5102961;27;87053;-63
2023/04/02 07:16:28;;;;;;;1.03;0.50;;;;;;;;;;5096210;27;87149;-63
2023/04/02 07:18:57;;;;;;;0.50;0.50;;;;;;;;;;5094288;27;89003;-64
2023/04/02 07:21:26;;;;;;;1.60;0.70;;;;;;;;;;5081828;27;88979;-63
2023/04/02 07:23:54;;;;;;;3.30;0.80;;;;;;;;;;5081795;27;86841;-63
2023/04/02 07:26:25;;;;;;;0.50;0.50;;;;;;;;;;5082639;27;86169;-63
2023/04/02 07:28:54;;;;;;;0.50;0.50;;;;;;;;;;5081666;27;89228;-63
2023/04/02 07:31:23;;;;;;;1.43;0.70;;;;;;;;;;5085806;27;88999;-63
2023/04/02 07:33:51;;;;;;;0.60;0.60;;;;;;;;;;5101351;27;88094;-63
2023/04/02 07:36:20;;;;;;;0.53;0.47;;;;;;;;;;5104938;27;87015;-63
2023/04/02 07:38:48;;;;;;;0.70;0.70;;;;;;;;;;5104933;27;87944;-63
2023/04/02 07:41:18;;;;;;;1.03;0.50;;;;;;;;;;5104314;27;88837;-61
2023/04/02 07:43:48;;;;;;;0.87;0.60;;;;;;;;;;5106481;27;88119;-62
2023/04/02 07:46:17;;;;;;;1.00;0.50;;;;;;;;;;5105359;27;86873;-61
2023/04/02 07:48:46;;;;;;;0.40;0.40;;;;;;;;;;5109466;27;88014;-61
2023/04/02 07:51:15;;;;;;;0.50;0.50;;;;;;;;;;5093221;27;88819;-62
2023/04/02 07:53:43;;;;;;;0.50;0.50;;;;;;;;;;5095647;27;87542;-62
2023/04/02 07:56:14;;;;;;;0.80;0.80;;;;;;;;;;5126010;27;87050;-62
2023/04/02 07:58:42;;;;;;;0.50;0.50;;;;;;;;;;5119687;27;90023;-61
2023/04/02 08:01:16;;;;;;;0.70;0.53;;;;;;;;;;5119528;27;89942;-62
2023/04/02 08:03:45;;;;;;;0.43;0.43;;;;;;;;;;5122732;27;87056;-62
2023/04/02 08:06:13;;;;;;;0.80;0.70;;;;;;;;;;5120980;27;86940;-62
2023/04/02 08:08:41;;;;;;;3.67;1.00;;;;;;;;;;5107969;27;89018;-62
2023/04/02 08:11:10;;;;;;;3.47;0.57;;;;;;;;;;5108306;27;88861;-62
2023/04/02 08:13:38;;;;;;;0.40;0.40;;;;;;;;;;5106310;27;87212;-65
2023/04/02 08:16:07;;;;;;;0.50;0.50;;;;;;;;;;5105056;27;86129;-62
2023/04/02 08:18:36;;;;;;;0.67;0.67;;;;;;;;;;5114735;27;88534;-62
2023/04/02 08:21:06;;;;;;;0.70;0.70;;;;;;;;;;5118782;27;88768;-62
2023/04/02 08:23:34;;;;;;;0.93;0.60;;;;;;;;;;5124391;27;88444;-62
2023/04/02 08:26:03;;;;;;;0.67;0.67;;;;;;;;;;5126050;27;86901;-62
2023/04/02 08:28:31;;;;;;;0.70;0.70;;;;;;;;;;5126062;27;87718;-62
2023/04/02 08:30:59;;;;;;;1.60;0.63;;;;;;;;;;5125710;27;88586;-62
2023/04/02 08:33:27;;;;;;;0.50;0.50;;;;;;;;;;5126111;27;87045;-62
2023/04/02 08:35:57;;;;;;;0.80;0.70;;;;;;;;;;5125955;27;86994;-62
2023/04/02 08:38:26;;;;;;;0.70;0.70;;;;;;;;;;5104762;27;88414;-62
2023/04/02 08:40:55;;;;;;;1.33;0.70;;;;;;;;;;5105265;27;88588;-62
2023/04/02 08:43:30;;;;;;;0.87;0.80;;;;;;;;;;5096226;27;87031;-62
2023/04/02 08:46:02;;;;;;;1.17;1.10;;;;;;;;;;5103061;27;87079;-62
2023/04/02 08:48:31;;;;;;;0.97;0.90;;;;;;;;;;5101357;27;90136;-62
2023/04/02 08:51:01;;;;;;;1.50;1.03;;;;;;;;;;5102376;27;89652;-62
2023/04/02 08:53:29;;;;;;;1.37;0.70;;;;;;;;;;5103473;27;86838;-62
2023/04/02 08:56:02;;;;;;;3.07;0.93;;;;;;;;;;5117651;27;86997;-62
2023/04/02 08:58:33;;;;;;;0.80;0.80;;;;;;;;;;5104766;27;87960;-62
2023/04/02 09:01:03;;;;;;;0.67;0.67;;;;;;;;;;5104595;27;88857;-62
2023/04/02 09:03:32;;;;;;;1.87;0.90;;;;;;;;;;5100289;27;86961;-62
2023/04/02 09:06:02;;;;;;;2.63;1.27;;;;;;;;;;5083847;27;86475;-63
2023/04/02 09:08:31;;;;;;;2.67;0.90;;;;;;;;;;5090295;27;87965;-62
2023/04/02 09:11:01;;;;;;;1.20;0.70;;;;;;;;;;5089402;27;88884;-62
2023/04/02 09:13:30;;;;;;;1.13;1.03;;;;;;;;;;5083872;27;88533;-62
2023/04/02 09:15:59;;;;;;;1.77;0.93;;;;;;;;;;5095796;27;86956;-62
2023/04/02 09:18:27;;;;;;;0.67;0.57;;;;;;;;;;5104075;27;89328;-62
2023/04/02 09:20:56;;;;;;;0.70;0.70;;;;;;;;;;5104489;27;88631;-64
2023/04/02 09:23:26;;;;;;;0.50;0.50;;;;;;;;;;5098930;27;87363;-64
2023/04/02 09:25:54;;;;;;;1.00;0.70;;;;;;;;;;5084119;27;86964;-62
2023/04/02 09:28:31;;;;;;;1.13;0.60;;;;;;;;;;5096289;27;89152;-63
2023/04/02 09:31:01;;;;;;;0.50;0.50;;;;;;;;;;5104123;27;88913;-64
2023/04/02 09:33:43;;;;;;;0.60;0.60;;;;;;;;;;5113398;27;86801;-62
2023/04/02 09:36:33;;;;;;;0.73;0.53;;;;;;;;;;5097493;27;87099;-63
2023/04/02 09:39:05;;;;;;;0.67;0.67;;;;;;;;;;5092799;27;90168;-64
2023/04/02 09:41:34;;;;;;;1.03;0.50;;;;;;;;;;5082736;27;89936;-64
2023/04/02 09:44:14;;;;;;;0.40;0.40;;;;;;;;;;5095251;27;87091;-64
2023/04/02 09:46:49;;;;;;;0.40;0.40;;;;;;;;;;5103402;27;87025;-61
2023/04/02 09:49:18;;;;;;;0.50;0.50;;;;;;;;;;5104089;27;88917;-63
2023/04/02 09:51:46;;;;;;;0.73;0.50;;;;;;;;;;5106224;27;88677;-60
2023/04/02 09:54:16;;;;;;;0.60;0.53;;;;;;;;;;5098885;27;87008;-61
2023/04/02 09:56:59;;;;;;;0.70;0.70;;;;;;;;;;5089187;27;86590;-61
2023/04/02 09:59:28;;;;;;;0.63;0.43;;;;;;;;;;5081180;27;89185;-61
2023/04/02 10:02:02;;;;;;;3.33;0.80;;;;;;;;;;5090085;27;88594;-61
2023/04/02 10:04:43;;;;;;;0.40;0.40;;;;;;;;;;5099455;27;89677;-61
2023/04/02 10:07:33;;;;;;;0.60;0.53;;;;;;;;;;5094720;27;87060;-63
2023/04/02 10:10:03;;;;;;;0.60;0.50;;;;;;;;;;5097380;27;91509;-61
2023/04/02 10:12:40;;;;;;;2.47;0.47;;;;;;;;;;5088044;27;88980;-61
2023/04/02 10:15:12;;;;;;;1.00;0.67;;;;;;;;;;5098519;27;86835;-62
2023/04/02 10:17:41;;;;;;;0.40;0.40;;;;;;;;;;5103137;27;86967;-61
2023/04/02 10:20:16;;;;;;;1.43;0.53;;;;;;;;;;5094480;27;88800;-61
2023/04/02 10:22:44;;;;;;;1.07;0.50;;;;;;;;;;5094557;27;88996;-62
2023/04/02 10:25:15;;;;;;;0.47;0.47;;;;;;;;;;5100736;27;86761;-62
2023/04/02 10:27:45;;;;;;;0.53;0.53;;;;;;;;;;5092602;27;86925;-62
2023/04/02 10:30:16;;;;;;;0.97;0.57;;;;;;;;;;5092006;27;88961;-61
2023/04/02 10:32:45;;;;;;;0.30;0.30;;;;;;;;;;5105326;27;89825;-62
2023/04/02 10:35:16;;;;;;;0.40;0.40;;;;;;;;;;5102808;27;86909;-62
2023/04/02 10:37:47;;;;;;;0.40;0.40;;;;;;;;;;5091379;27;86970;-62
2023/04/02 10:40:19;;;;;;;4.37;0.73;;;;;;;;;;5095235;27;89508;-61
2023/04/02 10:42:49;;;;;;;0.97;0.73;;;;;;;;;;5091120;27;88686;-61
2023/04/02 10:45:19;;;;;;;1.53;0.40;;;;;;;;;;5097338;27;87123;-61
2023/04/02 10:47:48;;;;;;;0.87;0.60;;;;;;;;;;5095868;27;87876;-63
2023/04/02 10:50:25;;;;;;;0.40;0.40;;;;;;;;;;5100642;27;88253;-62
2023/04/02 10:52:54;;;;;;;0.63;0.50;;;;;;;;;;5090333;27;88764;-61
2023/04/02 10:55:26;;;;;;;3.60;0.60;;;;;;;;;;5102151;27;87703;-61
2023/04/02 10:57:54;;;;;;;0.37;0.37;;;;;;;;;;5101648;27;86892;-61
2023/04/02 11:00:23;;;;;;;0.77;0.47;;;;;;;;;;5099964;27;88919;-61
2023/04/02 11:02:52;;;;;;;0.50;0.50;;;;;;;;;;5090318;27;88571;-61
2023/04/02 11:05:27;;;;;;;1.37;0.50;;;;;;;;;;5099209;27;87318;-61
2023/04/02 11:07:58;;;;;;;0.50;0.30;;;;;;;;;;5099373;27;87179;-61
2023/04/02 11:10:27;;;;;;;0.30;0.30;;;;;;;;;;5102446;27;89121;-61
2023/04/02 11:12:57;;;;;;;0.87;0.57;;;;;;;;;;5107006;27;88870;-61
2023/04/02 11:15:26;;;;;;;0.40;0.40;;;;;;;;;;5123369;27;87065;-62
2023/04/02 11:17:54;;;;;;;0.93;0.70;;;;;;;;;;5096112;27;87098;-61
2023/04/02 11:20:42;;;;;;;0.47;0.40;;;;;;;;;;5098661;27;90068;-61
2023/04/02 11:23:11;;;;;;;0.30;0.30;;;;;;;;;;5107511;27;89821;-61
2023/04/02 11:25:41;;;;;;;0.30;0.30;;;;;;;;;;5101256;27;87074;-61
2023/04/02 11:28:26;;;;;;;1.37;0.30;;;;;;;;;;5101816;27;87007;-61
2023/04/02 11:30:55;;;;;;;0.33;0.30;;;;;;;;;;5084204;27;89113;-61
2023/04/02 11:33:39;;;;;;;1.33;0.40;;;;;;;;;;5095371;27;89007;-61
2023/04/02 11:36:31;;;;;;;0.40;0.40;;;;;;;;;;5103577;27;87009;-60
2023/04/02 11:38:59;;;;;;;0.53;0.30;;;;;;;;;;5094800;27;86273;-61
2023/04/02 11:41:59;;;;;;;2.00;0.87;;;;;;;;;;5105830;27;88269;-61
2023/04/02 11:44:28;;;;;;;2.20;0.37;;;;;;;;;;5103286;27;89146;-61
2023/04/02 11:47:11;;;;;;;0.67;0.40;;;;;;;;;;5104787;27;88111;-61
2023/04/02 11:49:40;;;;;;;0.80;0.60;;;;;;;;;;5098593;27;87201;-61
2023/04/02 11:52:20;;;;;;;0.70;0.70;;;;;;;;;;5123758;27;89074;-61
2023/04/02 11:54:55;;;;;;;0.53;0.53;;;;;;;;;;5084219;27;90444;-61
2023/04/02 11:57:26;;;;;;;0.50;0.30;;;;;;;;;;5086660;27;87515;-61
2023/04/02 12:00:00;;;;;;;0.57;0.57;;;;;;;;;;5105435;27;87064;-61
2023/04/02 12:02:29;;;;;;;0.50;0.30;;;;;;;;;;5103257;27;87961;-61
2023/04/02 12:05:03;;;;;;;1.23;0.50;;;;;;;;;;5089296;27;88836;-61
2023/04/02 12:07:54;;;;;;;0.30;0.30;;;;;;;;;;5105180;27;87109;-61
2023/04/02 12:10:23;;;;;;;0.50;0.40;;;;;;;;;;5099047;27;86989;-61
2023/04/02 12:12:51;;;;;;;0.40;0.40;;;;;;;;;;5104325;27;90009;-61
2023/04/02 12:15:34;;;;;;;1.13;0.33;;;;;;;;;;5103906;27;89822;-61
2023/04/02 12:18:04;;;;;;;0.37;0.37;;;;;;;;;;5104313;27;87251;-61
2023/04/02 12:20:32;;;;;;;0.73;0.40;;;;;;;;;;5104619;27;86952;-62
2023/04/02 12:23:01;;;;;;;0.40;0.40;;;;;;;;;;5099704;27;89248;-62
2023/04/02 12:25:31;;;;;;;1.00;0.97;;;;;;;;;;5084168;27;88683;-61
2023/04/02 12:28:16;;;;;;;0.80;0.60;;;;;;;;;;5094573;27;87005;-61
2023/04/02 12:30:46;;;;;;;0.67;0.60;;;;;;;;;;5099235;27;86275;-62
2023/04/02 12:33:15;;;;;;;0.53;0.53;;;;;;;;;;5095066;27;88895;-62
2023/04/02 12:35:44;;;;;;;0.50;0.50;;;;;;;;;;5100885;27;89101;-62
2023/04/02 12:38:19;;;;;;;0.40;0.40;;;;;;;;;;5100244;27;88045;-62
2023/04/02 12:40:52;;;;;;;0.40;0.40;;;;;;;;;;5104994;27;87092;-62
2023/04/02 12:43:24;;;;;;;0.60;0.30;;;;;;;;;;5100530;27;88759;-61
2023/04/02 12:45:54;;;;;;;0.40;0.40;;;;;;;;;;5103548;27;88535;-62
2023/04/02 12:48:22;;;;;;;0.67;0.67;;;;;;;;;;5101124;27;86882;-61
2023/04/02 12:50:50;;;;;;;2.20;0.67;;;;;;;;;;5105189;27;87024;-61
2023/04/02 12:53:20;;;;;;;0.63;0.63;;;;;;;;;;5103918;27;88977;-62
2023/04/02 12:55:48;;;;;;;0.37;0.37;;;;;;;;;;5102939;27;87793;-62
2023/04/02 12:58:24;;;;;;;0.73;0.40;;;;;;;;;;5104153;27;86981;-61
2023/04/02 13:01:04;;;;;;;0.50;0.40;;;;;;;;;;5104952;27;86816;-62
2023/04/02 13:03:32;;;;;;;0.50;0.50;;;;;;;;;;5099764;27;89937;-61
2023/04/02 13:06:01;;;;;;;0.43;0.43;;;;;;;;;;5097326;27;90174;-61
2023/04/02 13:08:30;;;;;;;0.47;0.47;;;;;;;;;;5087046;27;86823;-62
2023/04/02 13:10:58;;;;;;;0.40;0.40;;;;;;;;;;5083475;27;86802;-61
2023/04/02 13:13:28;;;;;;;0.63;0.40;;;;;;;;;;5091416;27;89371;-61
2023/04/02 13:16:02;;;;;;;0.30;0.30;;;;;;;;;;5104006;27;87693;-61
2023/04/02 13:18:30;;;;;;;1.20;0.50;;;;;;;;;;5105206;27;87047;-62
2023/04/02 13:20:59;;;;;;;0.47;0.47;;;;;;;;;;5103845;27;86338;-61
2023/04/02 13:23:32;;;;;;;1.50;0.40;;;;;;;;;;5091272;27;89139;-61
2023/04/02 13:26:01;;;;;;;0.97;0.60;;;;;;;;;;5098954;27;88803;-61
2023/04/02 13:28:29;;;;;;;0.60;0.33;;;;;;;;;;5103614;27;87893;-62
2023/04/02 13:30:57;;;;;;;0.30;0.30;;;;;;;;;;5104139;27;87064;-61
2023/04/02 13:33:27;;;;;;;0.50;0.40;;;;;;;;;;5103702;27;88536;-61
2023/04/02 13:35:55;;;;;;;0.30;0.30;;;;;;;;;;5101285;27;88810;-61
2023/04/02 13:38:23;;;;;;;0.50;0.30;;;;;;;;;;5101051;27;86950;-61
2023/04/02 13:40:52;;;;;;;0.63;0.40;;;;;;;;;;5104064;27;86986;-61
2023/04/02 13:43:20;;;;;;;0.37;0.37;;;;;;;;;;5104263;27;89100;-61
2023/04/02 13:45:49;;;;;;;0.40;0.40;;;;;;;;;;5103792;27;88561;-61
2023/04/02 13:48:18;;;;;;;0.30;0.30;;;;;;;;;;5104089;27;87017;-61
2023/04/02 13:50:47;;;;;;;2.90;0.50;;;;;;;;;;5104929;27;86902;-61
2023/04/02 13:53:16;;;;;;;0.50;0.43;;;;;;;;;;5103834;27;90088;-61
2023/04/02 13:55:45;;;;;;;0.57;0.37;;;;;;;;;;5103474;27;89862;-65
2023/04/02 13:58:13;;;;;;;1.03;0.53;;;;;;;;;;5103544;27;86880;-61
2023/04/02 14:00:42;;;;;;;0.83;0.40;;;;;;;;;;5104124;27;86998;-61
2023/04/02 14:03:11;;;;;;;0.60;0.60;;;;;;;;;;5098416;27;89012;-61
2023/04/02 14:05:40;;;;;;;0.40;0.40;;;;;;;;;;5092445;27;88849;-61
2023/04/02 14:08:11;;;;;;;1.20;0.47;;;;;;;;;;5095071;27;86960;-61
2023/04/02 14:10:51;;;;;;;0.83;0.50;;;;;;;;;;5103914;27;86301;-61
2023/04/02 14:13:22;;;;;;;0.40;0.40;;;;;;;;;;5103244;27;89439;-61
2023/04/02 14:15:53;;;;;;;0.53;0.50;;;;;;;;;;5103183;27;88816;-61
2023/04/02 14:18:25;;;;;;;0.40;0.40;;;;;;;;;;5100925;27;88069;-61
2023/04/02 14:20:56;;;;;;;0.47;0.47;;;;;;;;;;5084527;27;87146;-61
2023/04/02 14:23:29;;;;;;;0.83;0.40;;;;;;;;;;5082942;27;89197;-61
2023/04/02 14:25:58;;;;;;;0.73;0.60;;;;;;;;;;5081732;27;87750;-61
2023/04/02 14:28:36;;;;;;;0.40;0.40;;;;;;;;;;5082554;27;87974;-62
2023/04/02 14:31:06;;;;;;;0.40;0.33;;;;;;;;;;5091711;27;86945;-61
2023/04/02 14:33:36;;;;;;;0.17;0.17;;;;;;;;;;5106926;27;89088;-61
2023/04/02 14:36:08;;;;;;;0.37;0.37;;;;;;;;;;5101776;27;87764;-61
2023/04/02 14:38:40;;;;;;;0.40;0.40;;;;;;;;;;5109760;27;87045;-61
2023/04/02 14:41:09;;;;;;;0.30;0.30;;;;;;;;;;5124046;27;87018;-61
2023/04/02 14:43:39;;;;;;;0.50;0.50;;;;;;;;;;5101331;27;90031;-61
2023/04/02 14:46:09;;;;;;;0.23;0.23;;;;;;;;;;5124718;27;90141;-61
2023/04/02 14:48:47;;;;;;;0.70;0.70;;;;;;;;;;5127854;27;86979;-61
2023/04/02 14:51:18;;;;;;;0.50;0.50;;;;;;;;;;5123598;27;87415;-61
2023/04/02 14:53:51;;;;;;;0.40;0.40;;;;;;;;;;5105989;27;87691;-61
2023/04/02 14:56:20;;;;;;;0.30;0.30;;;;;;;;;;5105933;27;89006;-61
2023/04/02 14:58:50;;;;;;;0.97;0.70;;;;;;;;;;5106515;27;86906;-61
2023/04/02 15:01:19;;;;;;;0.70;0.63;;;;;;;;;;5103001;27;86140;-61
2023/04/02 15:03:48;;;;;;;0.40;0.40;;;;;;;;;;5106291;27;88963;-61